Time;durP1;ratioP1;P1;durP2;ratioP2;P2;SDS_P1;SDS_P2;PMS_P1;PMS_P2;Temp;Humidity;BMP_temperature;BMP_pressure;BME280_temperature;BME280_humidity;BME280_pressure;Samples;Min_cycle;Max_cycle;Signal;HPM_P1;HPM_P2
2023/06/02 00:01:03;;;;;;;9.88;3.40;;;;;;;;;;5088072;28;20044;-66
2023/06/02 00:03:31;;;;;;;14.50;4.93;;;;;;;;;;5088615;28;20040;-66
2023/06/02 00:06:01;;;;;;;13.27;3.95;;;;;;;;;;5089794;28;20048;-65
2023/06/02 00:08:28;;;;;;;9.80;3.75;;;;;;;;;;5094889;28;20044;-66
2023/06/02 00:10:54;;;;;;;11.15;3.90;;;;;;;;;;5092152;28;20062;-66
2023/06/02 00:13:21;;;;;;;9.15;3.90;;;;;;;;;;5096544;28;20082;-66
2023/06/02 00:15:47;;;;;;;8.57;3.35;;;;;;;;;;5094413;28;20032;-66
2023/06/02 00:18:13;;;;;;;11.25;3.22;;;;;;;;;;5100458;28;20071;-66
2023/06/02 00:20:41;;;;;;;15.65;3.65;;;;;;;;;;5093057;28;21191;-66
2023/06/02 00:23:10;;;;;;;6.57;2.80;;;;;;;;;;5095450;28;20119;-66
2023/06/02 00:25:36;;;;;;;10.25;3.50;;;;;;;;;;5074170;28;20101;-66
2023/06/02 00:28:03;;;;;;;9.30;5.13;;;;;;;;;;5095524;28;20504;-65
2023/06/02 00:30:30;;;;;;;14.48;3.97;;;;;;;;;;5091310;28;20363;-66
2023/06/02 00:32:57;;;;;;;11.95;3.53;;;;;;;;;;5094180;28;20484;-66
2023/06/02 00:35:23;;;;;;;6.75;3.30;;;;;;;;;;5091884;28;20584;-65
2023/06/02 00:37:49;;;;;;;17.95;3.50;;;;;;;;;;5096154;28;20122;-66
2023/06/02 00:40:15;;;;;;;10.82;3.63;;;;;;;;;;5088340;28;20506;-65
2023/06/02 00:42:41;;;;;;;18.65;3.83;;;;;;;;;;5092095;28;20047;-65
2023/06/02 00:45:08;;;;;;;14.73;3.47;;;;;;;;;;5097981;28;20177;-66
2023/06/02 00:47:34;;;;;;;9.82;3.67;;;;;;;;;;5092033;28;20319;-66
2023/06/02 00:50:00;;;;;;;13.68;4.35;;;;;;;;;;5076435;28;20188;-66
2023/06/02 00:52:27;;;;;;;9.93;3.35;;;;;;;;;;5085835;28;20636;-66
2023/06/02 00:54:53;;;;;;;17.60;4.80;;;;;;;;;;5098247;28;20113;-66
2023/06/02 00:57:21;;;;;;;10.10;3.08;;;;;;;;;;5088073;28;20186;-66
2023/06/02 00:59:47;;;;;;;5.97;3.58;;;;;;;;;;5094452;28;20262;-66
2023/06/02 01:02:16;;;;;;;13.68;3.70;;;;;;;;;;5090342;28;20542;-67
2023/06/02 01:04:46;;;;;;;10.68;3.58;;;;;;;;;;5079409;28;20032;-66
2023/06/02 01:07:13;;;;;;;16.63;3.70;;;;;;;;;;5094491;28;20028;-66
2023/06/02 01:09:41;;;;;;;11.32;4.25;;;;;;;;;;5094720;28;20151;-66
2023/06/02 01:12:07;;;;;;;10.48;4.28;;;;;;;;;;5091948;28;20040;-66
2023/06/02 01:14:33;;;;;;;9.45;2.80;;;;;;;;;;5089903;28;20078;-67
2023/06/02 01:17:00;;;;;;;5.82;3.00;;;;;;;;;;5090396;28;20040;-65
2023/06/02 01:19:28;;;;;;;16.52;4.70;;;;;;;;;;5091724;28;20036;-66
2023/06/02 01:21:59;;;;;;;7.75;3.50;;;;;;;;;;5097496;28;20054;-66
2023/06/02 01:24:29;;;;;;;9.52;3.53;;;;;;;;;;5094200;28;20046;-66
2023/06/02 01:26:55;;;;;;;16.08;4.72;;;;;;;;;;5087280;28;20073;-66
2023/06/02 01:29:21;;;;;;;10.13;3.97;;;;;;;;;;5089719;28;20439;-66
2023/06/02 01:31:50;;;;;;;12.25;4.00;;;;;;;;;;5096717;28;20493;-66
2023/06/02 01:34:26;;;;;;;10.48;3.28;;;;;;;;;;5095249;28;20105;-66
2023/06/02 01:36:55;;;;;;;8.05;3.38;;;;;;;;;;5088011;28;20043;-66
2023/06/02 01:39:23;;;;;;;12.05;4.10;;;;;;;;;;5097954;28;20502;-66
2023/06/02 01:41:50;;;;;;;8.95;3.75;;;;;;;;;;5094896;28;20490;-65
2023/06/02 01:44:16;;;;;;;12.30;4.25;;;;;;;;;;5089603;28;20080;-66
2023/06/02 01:46:44;;;;;;;9.05;4.10;;;;;;;;;;5089484;28;20514;-66
2023/06/02 01:49:17;;;;;;;6.18;3.28;;;;;;;;;;5091057;28;20101;-66
2023/06/02 01:51:43;;;;;;;11.10;3.75;;;;;;;;;;5088803;28;20044;-66
2023/06/02 01:54:10;;;;;;;10.75;3.67;;;;;;;;;;5094811;28;20134;-66
2023/06/02 01:56:36;;;;;;;10.10;3.60;;;;;;;;;;5090695;28;20127;-66
2023/06/02 01:59:02;;;;;;;11.68;4.05;;;;;;;;;;5088837;28;20036;-66
2023/06/02 02:01:29;;;;;;;11.32;3.85;;;;;;;;;;5089818;28;20043;-66
2023/06/02 02:03:55;;;;;;;14.10;3.97;;;;;;;;;;5094398;28;20119;-66
2023/06/02 02:06:26;;;;;;;15.40;4.47;;;;;;;;;;5095399;28;20085;-66
2023/06/02 02:08:52;;;;;;;8.88;4.10;;;;;;;;;;5075167;28;20040;-66
2023/06/02 02:11:18;;;;;;;11.90;3.63;;;;;;;;;;5073642;28;20253;-66
2023/06/02 02:13:44;;;;;;;10.75;4.47;;;;;;;;;;5095043;28;20083;-66
2023/06/02 02:16:10;;;;;;;7.65;3.65;;;;;;;;;;5089413;28;20487;-66
2023/06/02 02:18:37;;;;;;;7.75;3.20;;;;;;;;;;5092361;28;20131;-65
2023/06/02 02:21:03;;;;;;;11.30;3.53;;;;;;;;;;5089695;28;20040;-66
2023/06/02 02:23:29;;;;;;;11.43;4.55;;;;;;;;;;5089083;28;20063;-65
2023/06/02 02:25:55;;;;;;;13.30;3.58;;;;;;;;;;5094350;28;20047;-65
2023/06/02 02:28:21;;;;;;;10.52;3.95;;;;;;;;;;5089372;28;20081;-66
2023/06/02 02:30:47;;;;;;;12.13;3.97;;;;;;;;;;5088017;28;20048;-65
2023/06/02 02:33:13;;;;;;;8.65;3.40;;;;;;;;;;5071002;28;20036;-65
2023/06/02 02:35:41;;;;;;;16.30;4.22;;;;;;;;;;5093127;28;20056;-65
2023/06/02 02:38:07;;;;;;;13.50;5.32;;;;;;;;;;5092747;28;20283;-65
2023/06/02 02:40:33;;;;;;;12.70;3.90;;;;;;;;;;5089326;28;20032;-65
2023/06/02 02:42:59;;;;;;;10.18;4.25;;;;;;;;;;5091463;28;20065;-65
2023/06/02 02:45:26;;;;;;;14.90;3.58;;;;;;;;;;5093264;28;20036;-65
2023/06/02 02:47:52;;;;;;;14.07;4.13;;;;;;;;;;5089636;28;20355;-66
2023/06/02 02:50:18;;;;;;;10.48;3.25;;;;;;;;;;5089966;28;20069;-65
2023/06/02 02:52:44;;;;;;;15.30;4.60;;;;;;;;;;5089771;28;20040;-65
2023/06/02 02:55:10;;;;;;;14.88;4.47;;;;;;;;;;5098220;28;20490;-65
2023/06/02 02:57:37;;;;;;;8.02;4.47;;;;;;;;;;5090273;28;20524;-66
2023/06/02 03:00:06;;;;;;;13.20;3.78;;;;;;;;;;5092382;28;20050;-65
2023/06/02 03:02:32;;;;;;;10.75;4.28;;;;;;;;;;5088410;28;20096;-66
2023/06/02 03:05:02;;;;;;;16.83;4.93;;;;;;;;;;5090957;28;20044;-65
2023/06/02 03:07:28;;;;;;;16.17;5.35;;;;;;;;;;5086561;28;20036;-65
2023/06/02 03:09:54;;;;;;;11.45;3.97;;;;;;;;;;5090836;28;20066;-65
2023/06/02 03:12:20;;;;;;;15.48;4.28;;;;;;;;;;5095705;28;20051;-65
2023/06/02 03:14:46;;;;;;;12.93;3.72;;;;;;;;;;5091757;28;20036;-65
2023/06/02 03:17:13;;;;;;;10.18;3.85;;;;;;;;;;5085992;28;20036;-65
2023/06/02 03:19:39;;;;;;;10.02;3.78;;;;;;;;;;5088595;28;20032;-65
2023/06/02 03:22:06;;;;;;;12.43;5.13;;;;;;;;;;5070178;28;20036;-65
2023/06/02 03:24:32;;;;;;;18.20;4.85;;;;;;;;;;5086664;28;20044;-65
2023/06/02 03:26:59;;;;;;;14.70;3.72;;;;;;;;;;5089320;28;20478;-65
2023/06/02 03:29:25;;;;;;;16.15;4.03;;;;;;;;;;5086222;28;20035;-65
2023/06/02 03:31:55;;;;;;;12.38;4.60;;;;;;;;;;5094502;28;20119;-65
2023/06/02 03:34:22;;;;;;;14.18;4.68;;;;;;;;;;5088110;28;20044;-65
2023/06/02 03:36:48;;;;;;;7.03;3.10;;;;;;;;;;5071021;28;20092;-65
2023/06/02 03:39:15;;;;;;;15.95;5.07;;;;;;;;;;5095897;28;20031;-67
2023/06/02 03:41:41;;;;;;;10.18;4.20;;;;;;;;;;5091226;28;20192;-66
2023/06/02 03:44:07;;;;;;;9.90;4.13;;;;;;;;;;5074024;28;20044;-66
2023/06/02 03:46:34;;;;;;;13.93;4.15;;;;;;;;;;5058960;28;20291;-65
2023/06/02 03:49:00;;;;;;;12.82;3.72;;;;;;;;;;5091354;28;20436;-65
2023/06/02 03:51:26;;;;;;;13.10;4.25;;;;;;;;;;5092360;28;20036;-65
2023/06/02 03:53:52;;;;;;;14.00;4.40;;;;;;;;;;5081070;28;20145;-65
2023/06/02 03:56:22;;;;;;;15.70;4.53;;;;;;;;;;5094190;28;20067;-65
2023/06/02 03:58:48;;;;;;;8.52;4.28;;;;;;;;;;5098105;28;20471;-65
2023/06/02 04:01:16;;;;;;;10.77;3.60;;;;;;;;;;5094244;28;20151;-65
2023/06/02 04:03:42;;;;;;;10.65;3.97;;;;;;;;;;5092157;28;20051;-66
2023/06/02 04:06:08;;;;;;;17.10;4.07;;;;;;;;;;5091719;28;20036;-66
2023/06/02 04:08:35;;;;;;;13.93;4.32;;;;;;;;;;5093879;28;20036;-66
2023/06/02 04:11:01;;;;;;;10.38;4.50;;;;;;;;;;5089932;28;20048;-65
2023/06/02 04:13:28;;;;;;;17.52;4.78;;;;;;;;;;5095642;28;20203;-66
2023/06/02 04:15:54;;;;;;;14.57;3.97;;;;;;;;;;5126436;27;20090;-65
2023/06/02 04:18:20;;;;;;;12.20;3.92;;;;;;;;;;5092484;28;20368;-66
2023/06/02 04:20:47;;;;;;;13.23;5.05;;;;;;;;;;5088044;28;20048;-65
2023/06/02 04:23:13;;;;;;;13.15;4.95;;;;;;;;;;5086905;28;20154;-65
2023/06/02 04:25:39;;;;;;;18.58;4.85;;;;;;;;;;5095517;28;20040;-65
2023/06/02 04:28:05;;;;;;;13.90;4.50;;;;;;;;;;5098067;28;20128;-65
2023/06/02 04:30:31;;;;;;;10.48;4.30;;;;;;;;;;5091080;28;20040;-65
2023/06/02 04:32:58;;;;;;;15.02;4.65;;;;;;;;;;5093874;28;20094;-65
2023/06/02 04:35:24;;;;;;;10.60;5.32;;;;;;;;;;5122718;27;20048;-67
2023/06/02 04:37:52;;;;;;;11.93;4.32;;;;;;;;;;5091562;28;20046;-65
2023/06/02 04:40:18;;;;;;;12.70;4.10;;;;;;;;;;5095125;28;20112;-65
2023/06/02 04:42:44;;;;;;;14.98;4.63;;;;;;;;;;5090350;28;20079;-65
2023/06/02 04:45:11;;;;;;;11.80;5.25;;;;;;;;;;5097458;28;20116;-65
2023/06/02 04:47:38;;;;;;;17.48;4.63;;;;;;;;;;5094458;28;20047;-67
2023/06/02 04:50:06;;;;;;;13.48;5.28;;;;;;;;;;5090956;28;20055;-65
2023/06/02 04:52:32;;;;;;;11.65;4.43;;;;;;;;;;5089376;28;20047;-65
2023/06/02 04:54:59;;;;;;;13.70;4.68;;;;;;;;;;5088022;28;20277;-67
2023/06/02 04:57:25;;;;;;;17.35;5.05;;;;;;;;;;5093646;28;20404;-65
2023/06/02 04:59:51;;;;;;;25.08;5.47;;;;;;;;;;5091342;28;20371;-66
2023/06/02 05:02:17;;;;;;;19.88;4.90;;;;;;;;;;5087742;28;20097;-65
2023/06/02 05:04:44;;;;;;;22.65;5.38;;;;;;;;;;5096035;28;20047;-65
2023/06/02 05:07:10;;;;;;;17.45;6.20;;;;;;;;;;5090045;28;20040;-65
2023/06/02 05:09:36;;;;;;;13.00;5.82;;;;;;;;;;5089700;28;20043;-65
2023/06/02 05:12:03;;;;;;;14.18;4.88;;;;;;;;;;5097781;28;20070;-65
2023/06/02 05:14:29;;;;;;;13.50;4.97;;;;;;;;;;5093909;28;20055;-66
2023/06/02 05:16:56;;;;;;;13.45;5.68;;;;;;;;;;5096149;28;20038;-66
2023/06/02 05:19:22;;;;;;;17.33;6.07;;;;;;;;;;5077181;28;20533;-66
2023/06/02 05:21:48;;;;;;;15.50;5.50;;;;;;;;;;5097796;28;20032;-66
2023/06/02 05:24:14;;;;;;;12.27;4.03;;;;;;;;;;5091759;28;20036;-65
2023/06/02 05:26:41;;;;;;;11.88;4.63;;;;;;;;;;5093252;28;20103;-66
2023/06/02 05:29:07;;;;;;;14.20;4.80;;;;;;;;;;5092447;28;20108;-65
2023/06/02 05:31:33;;;;;;;19.20;4.80;;;;;;;;;;5084763;28;20566;-66
2023/06/02 05:33:59;;;;;;;13.82;5.05;;;;;;;;;;5093932;28;20085;-65
2023/06/02 05:36:25;;;;;;;14.43;4.43;;;;;;;;;;5125016;27;20389;-65
2023/06/02 05:38:52;;;;;;;14.38;5.30;;;;;;;;;;5093712;28;20285;-66
2023/06/02 05:41:18;;;;;;;12.48;4.40;;;;;;;;;;5082457;28;20230;-66
2023/06/02 05:43:44;;;;;;;17.63;6.18;;;;;;;;;;5074462;28;20088;-65
2023/06/02 05:46:10;;;;;;;17.77;5.03;;;;;;;;;;5090281;28;20036;-65
2023/06/02 05:48:36;;;;;;;14.63;5.28;;;;;;;;;;5096368;28;20077;-66
2023/06/02 05:51:03;;;;;;;15.10;6.18;;;;;;;;;;5055092;28;20039;-66
2023/06/02 05:53:29;;;;;;;19.63;7.13;;;;;;;;;;5092401;28;20203;-65
2023/06/02 05:55:55;;;;;;;13.63;5.22;;;;;;;;;;5086609;28;20348;-66
2023/06/02 05:58:21;;;;;;;16.80;5.82;;;;;;;;;;5076847;28;20639;-65
2023/06/02 06:00:47;;;;;;;21.40;6.45;;;;;;;;;;5087276;28;20040;-66
2023/06/02 06:03:15;;;;;;;23.10;7.00;;;;;;;;;;5072699;28;20047;-65
2023/06/02 06:05:41;;;;;;;17.98;5.90;;;;;;;;;;5092755;28;20446;-66
2023/06/02 06:08:08;;;;;;;12.73;4.93;;;;;;;;;;5090481;28;20036;-66
2023/06/02 06:10:34;;;;;;;12.48;5.22;;;;;;;;;;5086590;28;20057;-66
2023/06/02 06:13:00;;;;;;;20.98;6.40;;;;;;;;;;5089499;28;20043;-66
2023/06/02 06:15:26;;;;;;;18.45;6.78;;;;;;;;;;5087333;28;20047;-66
2023/06/02 06:17:53;;;;;;;16.88;6.97;;;;;;;;;;5093740;28;20427;-66
2023/06/02 06:20:20;;;;;;;18.77;6.57;;;;;;;;;;5092307;28;20473;-66
2023/06/02 06:22:46;;;;;;;14.23;5.15;;;;;;;;;;5084063;28;20387;-66
2023/06/02 06:25:13;;;;;;;17.85;6.68;;;;;;;;;;5090365;28;20044;-66
2023/06/02 06:27:39;;;;;;;14.40;6.60;;;;;;;;;;5088505;28;20131;-66
2023/06/02 06:30:06;;;;;;;26.85;6.30;;;;;;;;;;5090109;28;20043;-66
2023/06/02 06:32:32;;;;;;;27.63;7.20;;;;;;;;;;5086744;28;20046;-66
2023/06/02 06:35:02;;;;;;;18.20;6.63;;;;;;;;;;5082800;28;20048;-68
2023/06/02 06:37:28;;;;;;;19.95;6.78;;;;;;;;;;5085068;28;20416;-67
2023/06/02 06:39:55;;;;;;;22.90;6.65;;;;;;;;;;5083633;28;20071;-65
2023/06/02 06:42:24;;;;;;;16.33;6.32;;;;;;;;;;5087758;28;20035;-66
2023/06/02 06:44:51;;;;;;;21.52;7.43;;;;;;;;;;5085995;28;20032;-66
2023/06/02 06:47:18;;;;;;;21.65;7.38;;;;;;;;;;5093193;28;20043;-66
2023/06/02 06:49:44;;;;;;;22.33;6.25;;;;;;;;;;5085328;28;20519;-65
2023/06/02 06:52:10;;;;;;;23.30;6.22;;;;;;;;;;5069137;28;20067;-67
2023/06/02 06:54:38;;;;;;;20.80;7.05;;;;;;;;;;5092503;28;20105;-65
2023/06/02 06:57:05;;;;;;;23.92;6.90;;;;;;;;;;5081692;28;20036;-64
2023/06/02 06:59:31;;;;;;;15.02;7.82;;;;;;;;;;5088678;28;20442;-65
2023/06/02 07:01:57;;;;;;;21.55;7.45;;;;;;;;;;5084113;28;20038;-66
2023/06/02 07:04:24;;;;;;;26.85;7.07;;;;;;;;;;5085545;28;20398;-66
2023/06/02 07:06:50;;;;;;;15.93;6.10;;;;;;;;;;5087024;28;20036;-66
2023/06/02 07:09:16;;;;;;;16.05;6.80;;;;;;;;;;5088616;28;20146;-67
2023/06/02 07:11:43;;;;;;;15.32;6.22;;;;;;;;;;5070458;28;20141;-67
2023/06/02 07:14:10;;;;;;;17.80;7.43;;;;;;;;;;5068318;28;20058;-67
2023/06/02 07:16:36;;;;;;;16.42;6.57;;;;;;;;;;5084667;28;20040;-68
2023/06/02 07:19:02;;;;;;;13.95;6.30;;;;;;;;;;5084407;28;20048;-67
2023/06/02 07:21:28;;;;;;;18.88;7.35;;;;;;;;;;5089054;28;20261;-68
2023/06/02 07:23:54;;;;;;;14.52;6.88;;;;;;;;;;5086440;28;20486;-67
2023/06/02 07:26:21;;;;;;;19.30;6.47;;;;;;;;;;5085656;28;20059;-68
2023/06/02 07:28:48;;;;;;;20.30;6.00;;;;;;;;;;5091926;28;21032;-68
2023/06/02 07:31:14;;;;;;;18.45;6.35;;;;;;;;;;5084491;28;20481;-67
2023/06/02 07:33:40;;;;;;;16.48;6.63;;;;;;;;;;5086772;28;20047;-67
2023/06/02 07:36:06;;;;;;;17.80;6.22;;;;;;;;;;5085877;28;20058;-67
2023/06/02 07:38:32;;;;;;;22.42;6.47;;;;;;;;;;5090027;28;20115;-67
2023/06/02 07:41:00;;;;;;;14.32;6.35;;;;;;;;;;5089035;28;20036;-67
2023/06/02 07:43:26;;;;;;;16.23;6.28;;;;;;;;;;5085749;28;20432;-68
2023/06/02 07:45:53;;;;;;;18.27;5.93;;;;;;;;;;5085103;28;20044;-67
2023/06/02 07:48:19;;;;;;;23.90;7.53;;;;;;;;;;5068490;28;20496;-68
2023/06/02 07:50:45;;;;;;;14.80;5.93;;;;;;;;;;5090129;28;20457;-67
2023/06/02 07:53:11;;;;;;;21.48;5.93;;;;;;;;;;5085511;28;20048;-67
2023/06/02 07:55:37;;;;;;;16.48;5.40;;;;;;;;;;5089979;28;20517;-67
2023/06/02 07:58:03;;;;;;;18.67;5.32;;;;;;;;;;5087814;28;20060;-67
2023/06/02 08:00:30;;;;;;;17.45;6.10;;;;;;;;;;5088351;28;20115;-67
2023/06/02 08:02:56;;;;;;;20.25;5.45;;;;;;;;;;5081394;28;20388;-67
2023/06/02 08:05:22;;;;;;;11.15;6.78;;;13.20;99.90;;;;;;5088703;28;20472;-67
2023/06/02 08:07:48;;;;;;;23.27;5.95;;;13.60;99.90;;;;;;5085462;28;20044;-67
2023/06/02 08:10:14;;;;;;;13.27;4.57;;;;;;;;;;5087458;28;20100;-67
2023/06/02 08:12:40;;;;;;;14.60;5.60;;;;;;;;;;5114450;27;20076;-67
2023/06/02 08:15:06;;;;;;;21.52;5.88;;;;;;;;;;5068349;28;20173;-67
2023/06/02 08:17:33;;;;;;;17.10;4.57;;;;;;;;;;5064197;28;20036;-67
2023/06/02 08:19:59;;;;;;;14.88;4.75;;;;;;;;;;5087937;28;20047;-69
2023/06/02 08:22:27;;;;;;;15.43;5.35;;;;;;;;;;5085748;28;20036;-67
2023/06/02 08:24:56;;;;;;;15.13;5.82;;;;;;;;;;5115501;27;20213;-67
2023/06/02 08:27:23;;;;;;;20.30;5.25;;;;;;;;;;5088570;28;20043;-67
2023/06/02 08:29:53;;;;;;;20.65;5.70;;;;;;;;;;5074005;28;20042;-67
2023/06/02 08:32:22;;;;;;;11.60;5.30;;;;;;;;;;5087533;28;20499;-67
2023/06/02 08:34:50;;;;;;;14.90;5.55;;;;;;;;;;5071008;28;20096;-67
2023/06/02 08:37:20;;;;;;;14.32;4.53;;;;;;;;;;5086343;28;20441;-67
2023/06/02 08:39:47;;;;;;;7.30;3.63;;;;;;;;;;5090354;28;20040;-67
2023/06/02 08:42:14;;;;;;;19.13;4.28;;;;;;;;;;5091185;28;20068;-67
2023/06/02 08:44:41;;;;;;;15.65;5.63;;;;;;;;;;5069992;28;20067;-68
2023/06/02 08:47:11;;;;;;;12.05;4.25;;;;;;;;;;5090241;28;20043;-67
2023/06/02 08:49:41;;;;;;;10.45;4.45;;;;;;;;;;5070277;28;20036;-67
2023/06/02 08:52:11;;;;;;;12.88;4.10;;;;;;;;;;5085740;28;20215;-66
2023/06/02 08:54:37;;;;;;;12.30;3.63;;;;;;;;;;5085658;28;20479;-67
2023/06/02 08:57:05;;;;;;;20.75;4.78;;;;;;;;;;5089911;28;20122;-67
2023/06/02 08:59:31;;;;;;;10.48;3.67;;;;;;;;;;5087457;28;20555;-66
2023/06/02 09:02:00;;;;;;;7.15;3.55;;;13.60;99.90;;;;;;5067170;28;20383;-67
2023/06/02 09:04:27;;;;;;;12.13;4.28;;;15.40;99.90;;;;;;5086045;28;21561;-67
2023/06/02 09:07:12;;;;;;;8.77;3.58;;;;;;;;;;5088572;28;20048;-67
2023/06/02 09:09:45;;;;;;;14.20;3.58;;;;;;;;;;5090068;28;20314;-67
2023/06/02 09:12:12;;;;;;;7.00;3.30;;;;;;;;;;5047841;28;20056;-67
2023/06/02 09:14:39;;;;;;;6.68;2.80;;;;;;;;;;5052582;28;20104;-67
2023/06/02 09:17:25;;;;;;;7.25;2.45;;;;;;;;;;5052811;28;20463;-67
2023/06/02 09:19:52;;;;;;;7.43;3.28;;;;;;;;;;5045408;28;20045;-67
2023/06/02 09:22:18;;;;;;;7.35;2.92;;;;;;;;;;5063083;28;20473;-67
2023/06/02 09:24:44;;;;;;;8.55;2.42;;;;;;;;;;5049985;28;20115;-67
2023/06/02 09:27:12;;;;;;;11.05;3.15;;;;;;;;;;5049846;28;20480;-67
2023/06/02 09:29:39;;;;;;;5.88;2.47;;;;;;;;;;5046620;28;20032;-67
2023/06/02 09:32:11;;;;;;;5.32;2.63;;;;;;;;;;5052671;28;20029;-67
2023/06/02 09:34:38;;;;;;;7.05;2.20;;;;;;;;;;5048043;28;20045;-67
2023/06/02 09:37:15;;;;;;;7.10;2.17;;;15.40;99.90;;;;;;5080496;28;20336;-67
2023/06/02 09:39:42;;;;;;;4.30;2.05;;;;;;;;;;5049544;28;20412;-67
2023/06/02 09:42:08;;;;;;;6.03;2.30;;;;;;;;;;5051382;28;20519;-66
2023/06/02 09:44:35;;;;;;;5.90;2.50;;;;;;;;;;5048404;28;20052;-67
2023/06/02 09:47:03;;;;;;;4.40;2.58;;;;;;;;;;5048542;28;20496;-67
2023/06/02 09:49:42;;;;;;;4.97;2.35;;;;;;;;;;5062921;28;20048;-67
2023/06/02 09:52:15;;;;;;;7.68;2.33;;;;;;;;;;5043803;28;20305;-67
2023/06/02 09:54:41;;;;;;;;;;;;;;;;;;5050974;28;20041;-67
2023/06/02 09:57:07;;;;;;;5.70;2.00;;;;;;;;;;5080192;28;20353;-67
2023/06/02 09:59:34;;;;;;;11.80;2.22;;;;;;;;;;5050624;28;20053;-68
2023/06/02 10:02:00;;;;;;;7.32;2.15;;;;;;;;;;5053778;28;20041;-67
2023/06/02 10:04:26;;;;;;;5.15;2.05;;;;;;;;;;5066739;28;20051;-68
2023/06/02 10:07:06;;;;;;;5.75;2.38;;;;;;;;;;5047677;28;20048;-67
2023/06/02 10:09:38;;;;;;;4.65;1.60;;;;;;;;;;5046215;28;20551;-67
2023/06/02 10:12:04;;;;;;;4.05;1.10;;;;;;;;;;5084939;28;20056;-67
2023/06/02 10:14:31;;;;;;;4.63;1.80;;;;;;;;;;5089775;28;20058;-67
2023/06/02 10:17:20;;;;;;;4.60;1.92;;;;;;;;;;5086942;28;20043;-67
2023/06/02 10:19:46;;;;;;;6.15;1.85;;;;;;;;;;5082235;28;20100;-68
2023/06/02 10:22:30;;;;;;;2.83;1.30;;;;;;;;;;5080496;28;20036;-67
2023/06/02 10:24:56;;;;;;;10.88;2.22;;;;;;;;;;5068535;28;20055;-67
2023/06/02 10:27:28;;;;;;;3.95;1.88;;;;;;;;;;5091024;28;20040;-67
2023/06/02 10:29:55;;;;;;;5.70;2.28;;;;;;;;;;5086038;28;20048;-67
2023/06/02 10:32:22;;;;;;;6.55;2.13;;;;;;;;;;5089402;28;20082;-67
2023/06/02 10:34:52;;;;;;;2.88;1.60;;;;;;;;;;5086658;28;20055;-67
2023/06/02 10:37:19;;;;;;;3.42;1.77;;;;;;;;;;5084393;28;20043;-67
2023/06/02 10:39:46;;;;;;;5.70;2.60;;;;;;;;;;5086539;28;20574;-67
2023/06/02 10:42:14;;;;;;;5.32;1.83;;;;;;;;;;5089021;28;20051;-67
2023/06/02 10:44:40;;;;;;;3.95;2.28;;;;;;;;;;5091572;28;20044;-67
2023/06/02 10:47:18;;;;;;;4.13;1.50;;;;;;;;;;5084814;28;20058;-68
2023/06/02 10:49:53;;;;;;;3.63;1.58;;;;;;;;;;5081349;28;20347;-67
2023/06/02 10:52:20;;;;;;;3.55;1.40;;;;;;;;;;5077013;28;20040;-68
2023/06/02 10:55:05;;;;;;;3.88;1.65;;;;;;;;;;5084915;28;20036;-66
2023/06/02 10:57:52;;;;;;;2.95;1.52;;;;;;;;;;5086605;28;20079;-66
2023/06/02 11:00:36;;;;;;;3.38;1.42;;;;;;;;;;5074279;28;20119;-66
2023/06/02 11:03:06;;;;;;;3.00;1.17;;;;;;;;;;5120638;27;20187;-65
2023/06/02 11:05:33;;;;;;;5.07;1.60;;;;;;;;;;5089300;28;20493;-66
2023/06/02 11:08:11;;;;;;;6.60;1.90;;;;;;;;;;5084501;28;20063;-66
2023/06/02 11:10:41;;;;;;;4.20;1.42;;;;;;;;;;5085583;28;20419;-66
2023/06/02 11:13:07;;;;;;;1.98;1.30;;;;;;;;;;5065225;28;20161;-66
2023/06/02 11:15:33;;;;;;;4.25;1.88;;;;;;;;;;5088289;28;20091;-67
2023/06/02 11:18:03;;;;;;;2.53;1.30;;;;;;;;;;5072334;28;20036;-66
2023/06/02 11:20:35;;;;;;;5.43;1.52;;;;;;;;;;5089146;28;20127;-66
2023/06/02 11:23:05;;;;;;;4.43;1.58;;;;;;;;;;5091035;28;20060;-66
2023/06/02 11:25:31;;;;;;;4.28;1.40;;;;;;;;;;5084157;28;20058;-66
2023/06/02 11:27:57;;;;;;;3.97;1.42;;;;;;;;;;5085761;28;20328;-65
2023/06/02 11:30:24;;;;;;;3.22;1.85;;;;;;;;;;5087779;28;20048;-66
2023/06/02 11:32:51;;;;;;;2.83;1.30;;;;;;;;;;5091812;28;20490;-66
2023/06/02 11:35:27;;;;;;;2.88;1.58;;;;;;;;;;5087333;28;20174;-67
2023/06/02 11:38:20;;;;;;;2.67;1.15;;;;;;;;;;5072445;28;20097;-66
2023/06/02 11:40:46;;;;;;;7.97;2.33;;;;;;;;;;5075409;28;20528;-67
2023/06/02 11:43:20;;;;;;;8.63;1.83;;;;;;;;;;5084514;28;20148;-66
2023/06/02 11:45:46;;;;;;;5.60;2.00;;;;;;;;;;5086789;28;20522;-67
2023/06/02 11:48:12;;;;;;;5.20;1.50;;;;;;;;;;5088407;28;20032;-66
2023/06/02 11:50:39;;;;;;;3.35;1.65;;;;;;;;;;5090531;28;20070;-66
2023/06/02 11:53:13;;;;;;;4.38;1.98;;;;;;;;;;5082944;28;20140;-67
2023/06/02 11:55:40;;;;;;;2.47;1.80;;;;;;;;;;5088376;28;20107;-66
2023/06/02 11:58:22;;;;;;;5.97;1.50;;;;;;;;;;5083943;28;20032;-66
2023/06/02 12:00:50;;;;;;;3.70;1.73;;;;;;;;;;5087260;28;20036;-65
2023/06/02 12:03:20;;;;;;;3.67;1.83;;;;;;;;;;5085297;28;20048;-66
2023/06/02 12:05:48;;;;;;;4.15;1.70;;;;;;;;;;5090811;28;20356;-66
2023/06/02 12:08:22;;;;;;;6.47;1.80;;;;;;;;;;5091223;28;20402;-66
2023/06/02 12:10:48;;;;;;;3.10;1.60;;;;;;;;;;5089383;28;20062;-66
2023/06/02 12:13:28;;;;;;;5.80;2.10;;;;;;;;;;5089049;28;20059;-66
2023/06/02 12:15:55;;;;;;;7.65;1.80;;;;;;;;;;5085687;28;20032;-67
2023/06/02 12:18:32;;;;;;;6.00;2.47;;;;;;;;;;5096025;28;20374;-67
2023/06/02 12:20:59;;;;;;;9.55;2.53;;;;;;;;;;5093633;28;20135;-67
2023/06/02 12:23:42;;;;;;;7.75;2.65;;;;;;;;;;5092023;28;20573;-67
2023/06/02 12:26:08;;;;;;;4.78;2.45;;;;;;;;;;5083302;28;20073;-67
2023/06/02 12:28:35;;;;;;;7.00;2.30;;;;;;;;;;5089772;28;20376;-67
2023/06/02 12:31:01;;;;;;;7.47;2.78;;;;;;;;;;5087860;28;20075;-67
2023/06/02 12:33:27;;;;;;;7.47;2.40;;;;;;;;;;5093169;28;20048;-67
2023/06/02 12:35:53;;;;;;;11.30;3.17;;;;;;;;;;5093266;28;20368;-65
2023/06/02 12:38:19;;;;;;;4.13;2.13;;;;;;;;;;5095146;28;20036;-66
2023/06/02 12:40:45;;;;;;;4.80;2.42;;;;;;;;;;5089877;28;20036;-66
2023/06/02 12:43:13;;;;;;;7.85;2.80;;;;;;;;;;5086976;28;20124;-67
2023/06/02 12:45:39;;;;;;;7.35;2.60;;;;;;;;;;5089091;28;20059;-68
2023/06/02 12:48:06;;;;;;;8.27;3.17;;;;;;;;;;5088770;28;20452;-67
2023/06/02 12:50:32;;;;;;;25.40;3.88;;;;;;;;;;5088034;28;20126;-65
2023/06/02 12:52:58;;;;;;;7.45;2.70;;;;;;;;;;5069995;28;20047;-66
2023/06/02 12:55:26;;;;;;;4.93;2.40;;;;;;;;;;5089729;28;20075;-65
2023/06/02 12:57:53;;;;;;;7.95;2.45;;;;;;;;;;5089520;28;20040;-65
2023/06/02 13:00:19;;;;;;;7.07;2.33;;;;;;;;;;5088414;28;20510;-66
2023/06/02 13:02:46;;;;;;;5.65;2.40;;;;;;;;;;5089055;28;20135;-65
2023/06/02 13:05:12;;;;;;;6.38;2.72;;;;;;;;;;5090119;27;20134;-67
2023/06/02 13:07:39;;;;;;;7.97;2.58;;;;;;;;;;5086129;28;20040;-66
2023/06/02 13:10:06;;;;;;;8.45;3.00;;;;;;;;;;5091173;28;20553;-66
2023/06/02 13:12:33;;;;;;;6.18;2.53;;;;;;;;;;5090515;28;20509;-66
2023/06/02 13:15:00;;;;;;;8.70;3.55;;;;;;;;;;5091337;28;20123;-66
2023/06/02 13:17:27;;;;;;;9.07;3.15;;;16.30;99.90;;;;;;5087009;28;20552;-66
2023/06/02 13:19:53;;;;;;;6.57;2.53;;;18.90;99.90;;;;;;5090665;28;20044;-66
2023/06/02 13:22:20;;;;;;;4.95;2.20;;;18.90;99.90;;;;;;5088569;28;20059;-67
2023/06/02 13:24:46;;;;;;;5.47;2.05;;;18.90;99.90;;;;;;5091494;28;20039;-66
2023/06/02 13:27:12;;;;;;;7.53;3.10;;;18.80;99.90;;;;;;5090837;28;20048;-66
2023/06/02 13:29:38;;;;;;;6.78;3.08;;;18.80;99.90;;;;;;5090006;28;20043;-66
2023/06/02 13:32:05;;;;;;;8.38;3.17;;;18.80;99.90;;;;;;5110728;27;20077;-66
2023/06/02 13:34:32;;;;;;;6.03;2.95;;;18.80;99.90;;;;;;5086571;28;20143;-66
2023/06/02 13:36:58;;;;;;;5.82;3.10;;;18.90;99.90;;;;;;5088366;28;20133;-66
2023/06/02 13:39:24;;;;;;;9.48;3.03;;;18.80;99.90;;;;;;5086949;28;20047;-65
2023/06/02 13:41:50;;;;;;;6.35;2.78;;;18.90;99.90;;;;;;5082718;28;20452;-65
2023/06/02 13:44:22;;;;;;;6.68;2.55;;;18.90;99.90;;;;;;5087985;28;20054;-65
2023/06/02 13:46:51;;;;;;;7.45;3.13;;;19.00;99.90;;;;;;5084417;28;20326;-65
2023/06/02 13:49:19;;;;;;;8.10;2.92;;;18.90;99.90;;;;;;5084412;28;20494;-65
2023/06/02 13:51:48;;;;;;;5.25;2.80;;;18.90;99.90;;;;;;5084478;28;20036;-66
2023/06/02 13:54:16;;;;;;;6.47;2.67;;;18.90;99.90;;;;;;5072693;28;20040;-65
2023/06/02 13:56:42;;;;;;;5.03;2.63;;;18.80;99.90;;;;;;5089636;28;20399;-65
2023/06/02 13:59:08;;;;;;;9.13;3.53;;;18.80;99.90;;;;;;5096986;28;20048;-66
2023/06/02 14:01:34;;;;;;;9.10;3.30;;;18.90;99.90;;;;;;5095914;28;20475;-66
2023/06/02 14:03:59;;;;;;;5.32;2.90;;;19.00;99.90;;;;;;5087231;28;20097;-65
2023/06/02 14:06:26;;;;;;;9.73;3.22;;;19.00;99.90;;;;;;5086002;28;20089;-65
2023/06/02 14:08:52;;;;;;;6.75;3.03;;;19.00;99.90;;;;;;5095449;28;20564;-65
2023/06/02 14:11:18;;;;;;;13.90;3.97;;;18.90;99.90;;;;;;5090376;28;20107;-65
2023/06/02 14:13:44;;;;;;;9.05;2.85;;;18.90;99.90;;;;;;5090376;28;20076;-66
2023/06/02 14:16:09;;;;;;;7.60;2.50;;;19.00;99.90;;;;;;5086497;28;20604;-66
2023/06/02 14:18:35;;;;;;;6.30;3.22;;;19.10;99.90;;;;;;5087421;28;20031;-68
2023/06/02 14:21:01;;;;;;;13.32;3.75;;;19.10;99.90;;;;;;5086532;28;20034;-65
2023/06/02 14:23:27;;;;;;;9.07;3.58;;;19.00;99.90;;;;;;5087549;28;20072;-65
2023/06/02 14:25:53;;;;;;;7.80;2.53;;;19.10;99.90;;;;;;5088204;28;20046;-65